Capitol Logistics 1818

Operating for CJT



CYYT
St. Johns International Airport
St. Johns, CA
CYQM
Greater Moncton International Airport
Moncton, CA

Activity Log

Date Flight Route Aircraft Duration
01/18/2022 CPX1818 HUL VIVIL ROGSA URVAS DAXES VIBNU B738 2h 02m
11/09/2021 CPX1818 HUL VIVIL ROGSA URVAS DAXES VIBNU B752 1h 36m

Route Details

Aircraft Information
Group: North America Fleet
Types: B738,B752,B762,B763
Route Data
Demand: V
Distance: 498nm
Duration: 1h 17m
Recm'd Route: HUL VIVIL ROGSA URVAS DAXES VIBNU
Origin Wx: CYYT 272200Z 18011KT 15SM BKN150 05/M04 A3020 RMK AC7 SLP236
Dest. Wx: CYQM 272200Z 06004KT 040V110 10SM -SHRA FEW005 BKN026 15/15 A2982 RMK SF2SC4 CV CTV CLD EMBD SLP103 DENSITY ALT 500FT
Notes:

Financial History
Total Freight: 45,771lbs
Average Load: 22,886lbs/flt
Fuel Used: 23,792lbs
Avg. Fuel Used: 11,896lbs/flt
Fuel Expense: $9,239
Avg. Fuel Expense: $4,619
Avg. Fuel Cost: $0.39/lbs
Total Gross Income: $113,512
Pilot Pay: $248
Total Expenses: $15,417
Total Revenue: $88,467
Average Revenue: $56,756.04